BEL4HU EBBR-EDDM
Flight info
| Callsign | BEL4HU |
|---|---|
| Flight time | 0h 54m |
| Altitude | 35000 |
| Route | SOPOK Y863 ROPUV L607 EMGOD DCT MOVUM T109 HAREM T104 ROKIL ROKIL1A |
| Aircraft | A320/M-SDE3FGHIRWY/LB1 |
Departure
| Time | 2026-04-30 20:32 |
|---|---|
| Airport | Brussels Airport (EBBR) |
Arrival
| Time | 2026-04-30 21:27 |
|---|---|
| Airport | Munich Airport (EDDM) |
| Time | Latitude | Longitude | Altitude | Speed | Heading |
|---|---|---|---|---|---|
| 2026-04-30 20:06 | 50.90307 | 4.48262 | 118 ft | 0 kts | 155° |
| 2026-04-30 20:21 | 50.90311 | 4.48259 | 116 ft | 3 kts | 155° |
| 2026-04-30 20:22 | 50.90334 | 4.48240 | 116 ft | 4 kts | 142° |
| 2026-04-30 20:22 | 50.90349 | 4.48212 | 116 ft | 4 kts | 84° |
| 2026-04-30 20:22 | 50.90348 | 4.48201 | 117 ft | 0 kts | 65° |
| 2026-04-30 20:25 | 50.90348 | 4.48203 | 121 ft | 2 kts | 65° |
| 2026-04-30 20:25 | 50.90381 | 4.48260 | 120 ft | 11 kts | 39° |
| 2026-04-30 20:26 | 50.90487 | 4.48526 | 118 ft | 21 kts | 65° |
| 2026-04-30 20:26 | 50.90625 | 4.49004 | 117 ft | 22 kts | 64° |
| 2026-04-30 20:26 | 50.90633 | 4.49141 | 120 ft | 11 kts | 141° |
| 2026-04-30 20:27 | 50.90446 | 4.49279 | 120 ft | 22 kts | 156° |
| 2026-04-30 20:27 | 50.90363 | 4.49451 | 123 ft | 12 kts | 66° |
| 2026-04-30 20:28 | 50.90243 | 4.49505 | 127 ft | 13 kts | 194° |
| 2026-04-30 20:28 | 50.90005 | 4.49409 | 132 ft | 20 kts | 194° |
| 2026-04-30 20:29 | 50.89753 | 4.49306 | 146 ft | 20 kts | 194° |
| 2026-04-30 20:30 | 50.89403 | 4.49122 | 164 ft | 17 kts | 195° |
| 2026-04-30 20:30 | 50.89137 | 4.49050 | 177 ft | 5 kts | 78° |
| 2026-04-30 20:31 | 50.89661 | 4.51318 | 207 ft | 156 kts | 70° |
| 2026-04-30 20:32 | 50.90998 | 4.55907 | 2384 ft | 152 kts | 71° |
| 2026-04-30 20:32 | 50.91965 | 4.58870 | 3546 ft | 162 kts | 72° |
| 2026-04-30 20:33 | 50.92500 | 4.60562 | 3900 ft | 180 kts | 71° |
| 2026-04-30 20:33 | 50.93742 | 4.64569 | 4593 ft | 222 kts | 76° |
| 2026-04-30 20:33 | 50.94253 | 4.66984 | 5097 ft | 241 kts | 77° |
| 2026-04-30 20:34 | 50.95272 | 4.72405 | 6499 ft | 263 kts | 78° |
| 2026-04-30 20:34 | 50.95052 | 4.78030 | 8217 ft | 261 kts | 115° |
| 2026-04-30 20:35 | 50.94026 | 4.80416 | 9055 ft | 265 kts | 135° |
| 2026-04-30 20:35 | 50.92598 | 4.82314 | 9883 ft | 270 kts | 140° |
| 2026-04-30 20:35 | 50.89551 | 4.86244 | 10841 ft | 303 kts | 140° |
| 2026-04-30 20:36 | 50.87867 | 4.88462 | 11064 ft | 326 kts | 138° |
| 2026-04-30 20:36 | 50.86135 | 4.90895 | 11565 ft | 337 kts | 137° |
| 2026-04-30 20:36 | 50.82641 | 4.95995 | 12972 ft | 346 kts | 136° |
| 2026-04-30 20:37 | 50.80862 | 4.98601 | 13692 ft | 350 kts | 136° |
| 2026-04-30 20:37 | 50.79085 | 5.01187 | 14352 ft | 354 kts | 136° |
| 2026-04-30 20:37 | 50.77261 | 5.03819 | 14987 ft | 357 kts | 137° |
| 2026-04-30 20:37 | 50.75411 | 5.06473 | 15625 ft | 361 kts | 137° |
| 2026-04-30 20:38 | 50.73542 | 5.09146 | 16254 ft | 364 kts | 137° |
| 2026-04-30 20:38 | 50.71656 | 5.11848 | 16895 ft | 367 kts | 137° |
| 2026-04-30 20:38 | 50.69760 | 5.14561 | 17524 ft | 370 kts | 136° |
| 2026-04-30 20:39 | 50.65907 | 5.20082 | 18707 ft | 378 kts | 136° |
| 2026-04-30 20:39 | 50.63951 | 5.22883 | 19248 ft | 381 kts | 136° |
| 2026-04-30 20:39 | 50.61979 | 5.25697 | 19784 ft | 384 kts | 136° |
| 2026-04-30 20:40 | 50.57981 | 5.31382 | 20876 ft | 390 kts | 136° |
| 2026-04-30 20:40 | 50.55957 | 5.34249 | 21392 ft | 393 kts | 136° |
| 2026-04-30 20:40 | 50.53916 | 5.37138 | 21905 ft | 396 kts | 136° |
| 2026-04-30 20:41 | 50.49790 | 5.42968 | 22920 ft | 401 kts | 136° |
| 2026-04-30 20:41 | 50.47707 | 5.45912 | 23404 ft | 404 kts | 136° |
| 2026-04-30 20:41 | 50.45611 | 5.48869 | 23861 ft | 407 kts | 136° |
| 2026-04-30 20:41 | 50.43502 | 5.51840 | 24247 ft | 409 kts | 136° |
| 2026-04-30 20:42 | 50.41377 | 5.54834 | 24629 ft | 411 kts | 136° |
| 2026-04-30 20:42 | 50.39268 | 5.57804 | 24973 ft | 414 kts | 136° |
| 2026-04-30 20:42 | 50.34918 | 5.63912 | 25658 ft | 420 kts | 136° |
| 2026-04-30 20:43 | 50.32769 | 5.66922 | 26006 ft | 422 kts | 137° |
| 2026-04-30 20:43 | 50.30576 | 5.69989 | 26355 ft | 424 kts | 137° |
| 2026-04-30 20:43 | 50.28395 | 5.73115 | 26697 ft | 426 kts | 133° |
| 2026-04-30 20:44 | 50.25028 | 5.80666 | 27405 ft | 426 kts | 114° |
| 2026-04-30 20:44 | 50.23997 | 5.84996 | 27741 ft | 427 kts | 105° |
| 2026-04-30 20:44 | 50.22491 | 5.94006 | 28342 ft | 431 kts | 104° |
| 2026-04-30 20:45 | 50.20960 | 6.03090 | 28921 ft | 435 kts | 104° |
| 2026-04-30 20:45 | 50.20176 | 6.07657 | 29189 ft | 437 kts | 104° |
| 2026-04-30 20:45 | 50.19383 | 6.12238 | 29443 ft | 438 kts | 104° |
| 2026-04-30 20:46 | 50.18652 | 6.26392 | 30318 ft | 439 kts | 84° |
| 2026-04-30 20:46 | 50.18962 | 6.31131 | 30627 ft | 439 kts | 84° |
| 2026-04-30 20:47 | 50.19556 | 6.40591 | 31207 ft | 438 kts | 85° |
| 2026-04-30 20:47 | 50.19842 | 6.45321 | 31501 ft | 437 kts | 84° |
| 2026-04-30 20:48 | 50.20405 | 6.54743 | 32104 ft | 435 kts | 84° |
| 2026-04-30 20:48 | 50.20686 | 6.59443 | 32407 ft | 435 kts | 84° |
| 2026-04-30 20:48 | 50.20966 | 6.64142 | 32711 ft | 434 kts | 84° |
| 2026-04-30 20:48 | 50.21243 | 6.68829 | 33013 ft | 433 kts | 84° |
| 2026-04-30 20:49 | 50.21523 | 6.73509 | 33345 ft | 432 kts | 84° |
| 2026-04-30 20:49 | 50.21804 | 6.78178 | 33652 ft | 432 kts | 84° |
| 2026-04-30 20:49 | 50.22079 | 6.82839 | 33967 ft | 431 kts | 85° |
| 2026-04-30 20:50 | 50.21831 | 6.92187 | 34504 ft | 432 kts | 94° |
| 2026-04-30 20:50 | 50.21585 | 6.96852 | 34764 ft | 431 kts | 94° |
| 2026-04-30 20:50 | 50.21337 | 7.01516 | 35023 ft | 431 kts | 94° |
| 2026-04-30 20:50 | 50.21088 | 7.06173 | 35259 ft | 430 kts | 94° |
| 2026-04-30 20:51 | 50.20839 | 7.10829 | 35344 ft | 431 kts | 94° |
| 2026-04-30 20:51 | 50.20079 | 7.24760 | 35352 ft | 431 kts | 94° |
| 2026-04-30 20:52 | 50.19364 | 7.34047 | 35350 ft | 433 kts | 102° |
| 2026-04-30 20:53 | 50.16714 | 7.47533 | 35338 ft | 433 kts | 105° |
| 2026-04-30 20:53 | 50.14904 | 7.56490 | 35346 ft | 433 kts | 105° |
| 2026-04-30 20:54 | 50.12180 | 7.69914 | 35344 ft | 433 kts | 105° |
| 2026-04-30 20:55 | 50.09448 | 7.83327 | 35359 ft | 433 kts | 105° |
| 2026-04-30 20:55 | 50.07613 | 7.92254 | 35361 ft | 433 kts | 105° |
| 2026-04-30 20:56 | 50.04850 | 8.05622 | 35359 ft | 432 kts | 105° |
| 2026-04-30 20:57 | 50.02075 | 8.18964 | 35357 ft | 432 kts | 105° |
| 2026-04-30 20:57 | 50.00220 | 8.27852 | 35367 ft | 432 kts | 104° |
| 2026-04-30 20:58 | 49.97433 | 8.41128 | 35363 ft | 433 kts | 105° |
| 2026-04-30 20:58 | 49.95550 | 8.50009 | 35358 ft | 433 kts | 106° |
| 2026-04-30 20:59 | 49.91344 | 8.62538 | 35358 ft | 438 kts | 116° |
| 2026-04-30 21:00 | 49.85299 | 8.78941 | 35359 ft | 438 kts | 116° |
| 2026-04-30 21:01 | 49.80740 | 8.91191 | 35362 ft | 438 kts | 116° |
| 2026-04-30 21:02 | 49.76165 | 9.03415 | 35361 ft | 438 kts | 116° |
| 2026-04-30 21:02 | 49.73120 | 9.11561 | 35361 ft | 438 kts | 116° |
| 2026-04-30 21:03 | 49.70063 | 9.19709 | 35353 ft | 438 kts | 116° |
| 2026-04-30 21:03 | 49.67490 | 9.26529 | 35348 ft | 439 kts | 116° |
| 2026-04-30 21:04 | 49.64427 | 9.34600 | 35346 ft | 439 kts | 116° |
| 2026-04-30 21:04 | 49.59149 | 9.46186 | 35346 ft | 445 kts | 127° |
| 2026-04-30 21:05 | 49.55040 | 9.53404 | 35354 ft | 445 kts | 127° |
| 2026-04-30 21:05 | 49.50947 | 9.60561 | 35347 ft | 446 kts | 127° |
| 2026-04-30 21:06 | 49.46846 | 9.67714 | 35343 ft | 446 kts | 127° |
| 2026-04-30 21:06 | 49.42771 | 9.74813 | 35344 ft | 446 kts | 127° |
| 2026-04-30 21:07 | 49.38650 | 9.81952 | 35344 ft | 446 kts | 127° |
| 2026-04-30 21:07 | 49.34531 | 9.89077 | 35363 ft | 447 kts | 126° |
| 2026-04-30 21:08 | 49.30408 | 9.96201 | 35359 ft | 447 kts | 126° |
| 2026-04-30 21:08 | 49.28347 | 9.99754 | 35139 ft | 445 kts | 126° |
| 2026-04-30 21:08 | 49.26284 | 10.03303 | 34373 ft | 446 kts | 126° |
| 2026-04-30 21:09 | 49.24218 | 10.06842 | 33463 ft | 447 kts | 127° |
| 2026-04-30 21:09 | 49.22139 | 10.10393 | 32576 ft | 448 kts | 127° |
| 2026-04-30 21:09 | 49.20058 | 10.13943 | 31709 ft | 448 kts | 127° |
| 2026-04-30 21:09 | 49.17980 | 10.17487 | 30863 ft | 448 kts | 127° |
| 2026-04-30 21:10 | 49.15902 | 10.21031 | 29896 ft | 447 kts | 127° |
| 2026-04-30 21:10 | 49.13823 | 10.24577 | 28852 ft | 449 kts | 127° |
| 2026-04-30 21:10 | 49.11720 | 10.28077 | 28083 ft | 445 kts | 127° |
| 2026-04-30 21:10 | 49.09611 | 10.31492 | 27363 ft | 440 kts | 128° |
| 2026-04-30 21:11 | 49.07504 | 10.34847 | 26644 ft | 436 kts | 128° |
| 2026-04-30 21:11 | 49.05414 | 10.38155 | 25951 ft | 431 kts | 129° |
| 2026-04-30 21:11 | 49.03343 | 10.41433 | 25284 ft | 427 kts | 129° |
| 2026-04-30 21:11 | 49.01291 | 10.44691 | 24651 ft | 424 kts | 129° |
| 2026-04-30 21:12 | 48.99266 | 10.47913 | 24016 ft | 420 kts | 129° |
| 2026-04-30 21:12 | 48.97253 | 10.51120 | 23309 ft | 417 kts | 129° |
| 2026-04-30 21:12 | 48.95258 | 10.54297 | 22611 ft | 413 kts | 129° |
| 2026-04-30 21:12 | 48.93305 | 10.57406 | 21967 ft | 410 kts | 129° |
| 2026-04-30 21:13 | 48.91342 | 10.60533 | 21358 ft | 408 kts | 129° |
| 2026-04-30 21:13 | 48.89392 | 10.63641 | 20766 ft | 405 kts | 129° |
| 2026-04-30 21:13 | 48.87454 | 10.66729 | 20165 ft | 403 kts | 129° |
| 2026-04-30 21:13 | 48.85524 | 10.69800 | 19602 ft | 400 kts | 129° |
| 2026-04-30 21:14 | 48.83609 | 10.72835 | 19057 ft | 398 kts | 129° |
| 2026-04-30 21:14 | 48.81698 | 10.75854 | 18504 ft | 395 kts | 129° |
| 2026-04-30 21:14 | 48.79795 | 10.78849 | 17929 ft | 392 kts | 130° |
| 2026-04-30 21:14 | 48.77903 | 10.81813 | 17375 ft | 389 kts | 130° |
| 2026-04-30 21:15 | 48.76031 | 10.84741 | 16840 ft | 385 kts | 130° |
| 2026-04-30 21:15 | 48.74177 | 10.87643 | 16311 ft | 382 kts | 130° |
| 2026-04-30 21:15 | 48.72336 | 10.90524 | 15800 ft | 378 kts | 130° |
| 2026-04-30 21:15 | 48.70515 | 10.93372 | 15291 ft | 375 kts | 130° |
| 2026-04-30 21:16 | 48.68710 | 10.96196 | 14794 ft | 372 kts | 130° |
| 2026-04-30 21:16 | 48.66919 | 10.98996 | 14287 ft | 369 kts | 130° |
| 2026-04-30 21:16 | 48.65142 | 11.01768 | 13735 ft | 366 kts | 130° |
| 2026-04-30 21:16 | 48.63379 | 11.04515 | 13182 ft | 362 kts | 130° |
| 2026-04-30 21:17 | 48.61643 | 11.07241 | 12642 ft | 358 kts | 130° |
| 2026-04-30 21:17 | 48.59934 | 11.09939 | 12101 ft | 354 kts | 130° |
| 2026-04-30 21:17 | 48.58242 | 11.12618 | 11565 ft | 350 kts | 130° |
| 2026-04-30 21:17 | 48.56573 | 11.15274 | 11029 ft | 347 kts | 130° |
| 2026-04-30 21:18 | 48.54952 | 11.17864 | 10680 ft | 338 kts | 130° |
| 2026-04-30 21:18 | 48.53376 | 11.20381 | 10567 ft | 322 kts | 130° |
| 2026-04-30 21:18 | 48.51866 | 11.22784 | 10442 ft | 308 kts | 130° |
| 2026-04-30 21:18 | 48.50432 | 11.25046 | 10309 ft | 289 kts | 130° |
| 2026-04-30 21:19 | 48.49073 | 11.27180 | 9836 ft | 278 kts | 130° |
| 2026-04-30 21:19 | 48.47743 | 11.29275 | 9372 ft | 276 kts | 130° |
| 2026-04-30 21:19 | 48.46429 | 11.31359 | 8992 ft | 273 kts | 130° |
| 2026-04-30 21:19 | 48.45126 | 11.33432 | 8613 ft | 271 kts | 130° |
| 2026-04-30 21:20 | 48.43833 | 11.35496 | 8215 ft | 270 kts | 130° |
| 2026-04-30 21:20 | 48.42552 | 11.37553 | 7821 ft | 268 kts | 130° |
| 2026-04-30 21:20 | 48.41283 | 11.39596 | 7440 ft | 266 kts | 130° |
| 2026-04-30 21:20 | 48.40024 | 11.41630 | 7059 ft | 265 kts | 130° |
| 2026-04-30 21:21 | 48.38777 | 11.43659 | 6659 ft | 263 kts | 130° |
| 2026-04-30 21:21 | 48.37546 | 11.45659 | 6139 ft | 258 kts | 130° |
| 2026-04-30 21:21 | 48.35307 | 11.49277 | 5795 ft | 215 kts | 124° |
| 2026-04-30 21:22 | 48.34629 | 11.51165 | 5418 ft | 204 kts | 105° |
| 2026-04-30 21:22 | 48.34749 | 11.57298 | 4146 ft | 185 kts | 84° |
| 2026-04-30 21:23 | 48.34898 | 11.59167 | 3890 ft | 176 kts | 85° |
| 2026-04-30 21:23 | 48.35038 | 11.60926 | 3675 ft | 163 kts | 85° |
| 2026-04-30 21:23 | 48.35282 | 11.64025 | 3231 ft | 139 kts | 85° |
| 2026-04-30 21:24 | 48.35393 | 11.65437 | 3066 ft | 134 kts | 85° |
| 2026-04-30 21:24 | 48.35501 | 11.66814 | 2875 ft | 132 kts | 85° |
| 2026-04-30 21:24 | 48.35608 | 11.68183 | 2683 ft | 132 kts | 85° |
| 2026-04-30 21:24 | 48.35716 | 11.69570 | 2488 ft | 134 kts | 85° |
| 2026-04-30 21:25 | 48.35931 | 11.72347 | 2061 ft | 133 kts | 83° |
| 2026-04-30 21:25 | 48.36037 | 11.73722 | 1872 ft | 132 kts | 83° |
| 2026-04-30 21:25 | 48.36150 | 11.75099 | 1718 ft | 133 kts | 83° |
| 2026-04-30 21:26 | 48.36356 | 11.77835 | 1479 ft | 120 kts | 83° |
| 2026-04-30 21:26 | 48.36435 | 11.78836 | 1485 ft | 70 kts | 83° |
| 2026-04-30 21:27 | 48.36399 | 11.79446 | 1483 ft | 21 kts | 113° |
| 2026-04-30 21:27 | 48.36336 | 11.79654 | 1482 ft | 22 kts | 114° |
| 2026-04-30 21:27 | 48.36280 | 11.79790 | 1485 ft | 11 kts | 158° |
| 2026-04-30 21:28 | 48.36229 | 11.79660 | 1485 ft | 8 kts | 265° |